Terminal Aerodrome Forecast
Issued by NWS Quad Cities IA IL

Home | Current Version | Previous Version | Text Only | Print | Product List | Glossary On
Versions: 1 2 3 4 5 6 7 8 9 10 11 12 13 14 15 16 17
000
FTUS43 KDVN 192323
TAFDBQ
TAF
KDBQ 192323Z 2000/2024 15006KT P6SM BKN250
     FM200704 17007KT P6SM SCT250 WS020/24033KT
     FM201300 20010KT P6SM SKC
     FM201700 19013G20KT P6SM SCT250=

USA.gov is the U.S. government's official web portal to all federal, state and local government web resources and services.